createdAt,value
2023-09-25T00:01:32.095Z,6.80
2023-09-25T00:05:34.516Z,6.88
2023-09-25T00:09:36.246Z,6.45
2023-09-25T00:13:38.209Z,6.72
2023-09-25T00:17:41.215Z,6.35
2023-09-25T00:21:43.123Z,5.63
2023-09-25T00:25:44.810Z,6.90
2023-09-25T00:29:46.364Z,7.05
2023-09-25T00:33:48.041Z,6.30
2023-09-25T00:37:49.605Z,6.22
2023-09-25T00:41:51.186Z,7.22
2023-09-25T00:45:52.988Z,7.20
2023-09-25T00:49:57.596Z,7.05
2023-09-25T00:53:59.195Z,7.88
2023-09-25T00:58:02.000Z,7.55
2023-09-25T01:02:03.471Z,7.80
2023-09-25T01:06:06.551Z,6.85
2023-09-25T01:10:15.549Z,7.30
2023-09-25T01:14:17.457Z,7.20
2023-09-25T01:18:18.937Z,7.38
2023-09-25T01:22:20.477Z,7.15
2023-09-25T01:26:21.946Z,7.03
2023-09-25T01:30:24.492Z,7.03
2023-09-25T01:34:26.092Z,7.72
2023-09-25T01:38:28.151Z,7.15
2023-09-25T01:42:29.681Z,6.82
2023-09-25T01:46:31.218Z,7.45
2023-09-25T01:50:33.811Z,7.57
2023-09-25T01:54:36.228Z,7.47
2023-09-25T01:58:38.353Z,7.20
2023-09-25T02:02:41.529Z,7.68
2023-09-25T02:06:43.152Z,6.78
2023-09-25T02:10:44.678Z,6.90
2023-09-25T02:14:46.283Z,6.85
2023-09-25T02:18:48.121Z,7.07
2023-09-25T02:22:52.337Z,7.97
2023-09-25T02:26:53.981Z,8.07
2023-09-25T02:30:55.648Z,7.32
2023-09-25T02:34:57.244Z,7.30
2023-09-25T02:38:58.776Z,8.60
2023-09-25T02:43:01.479Z,8.18
2023-09-25T02:47:03.203Z,8.20
2023-09-25T02:51:04.647Z,8.40
2023-09-25T02:55:06.423Z,7.63
2023-09-25T02:59:09.054Z,9.50
2023-09-25T03:03:10.760Z,9.05
2023-09-25T03:07:12.300Z,8.85
2023-09-25T03:11:13.806Z,8.43
2023-09-25T03:15:15.880Z,7.85
2023-09-25T03:19:17.635Z,8.57
2023-09-25T03:23:19.256Z,9.02
2023-09-25T03:27:20.770Z,8.93
2023-09-25T03:31:22.429Z,8.75
2023-09-25T03:35:24.280Z,9.18
2023-09-25T03:39:26.141Z,8.93
2023-09-25T03:43:28.365Z,8.77
2023-09-25T03:47:30.119Z,8.52
2023-09-25T03:51:31.727Z,8.88
2023-09-25T03:55:33.773Z,10.02
2023-09-25T03:59:35.266Z,9.88
2023-09-25T04:03:36.881Z,9.48
2023-09-25T04:07:39.263Z,9.52
2023-09-25T04:11:40.698Z,9.75
2023-09-25T04:15:42.255Z,9.52
2023-09-25T04:19:45.535Z,8.60
2023-09-25T04:23:47.258Z,9.82
2023-09-25T04:27:56.437Z,9.50
2023-09-25T04:31:58.219Z,8.38
2023-09-25T04:36:02.354Z,9.63
2023-09-25T04:40:08.808Z,9.18
2023-09-25T04:44:10.362Z,8.70
2023-09-25T04:48:12.249Z,8.80
2023-09-25T04:52:13.841Z,10.02
2023-09-25T04:56:22.247Z,10.27
2023-09-25T05:00:26.171Z,9.77
2023-09-25T05:04:28.112Z,9.25
2023-09-25T05:08:29.578Z,9.10
2023-09-25T05:12:31.855Z,10.30
2023-09-25T05:16:33.442Z,9.73
2023-09-25T05:20:35.523Z,10.15
2023-09-25T05:24:37.145Z,10.32
2023-09-25T05:28:38.726Z,10.30
2023-09-25T05:32:44.287Z,10.15
2023-09-25T05:36:46.544Z,10.15
2023-09-25T05:40:48.135Z,10.23
2023-09-25T05:44:49.702Z,10.18
2023-09-25T05:48:51.291Z,10.52
2023-09-25T05:52:53.514Z,10.35
2023-09-25T05:56:54.978Z,10.10
2023-09-25T06:00:56.820Z,11.48
2023-09-25T06:04:58.616Z,10.40
2023-09-25T06:09:00.993Z,10.73
2023-09-25T06:13:03.127Z,10.45
2023-09-25T06:17:04.608Z,10.35
2023-09-25T06:21:06.817Z,11.25
2023-09-25T06:25:12.681Z,10.68
2023-09-25T06:29:15.099Z,10.65
2023-09-25T06:33:17.085Z,10.93
2023-09-25T06:37:18.901Z,9.73
2023-09-25T06:41:20.392Z,10.10
2023-09-25T06:45:22.965Z,10.80
2023-09-25T06:49:24.655Z,9.82
2023-09-25T06:53:26.366Z,10.50
2023-09-25T06:57:28.236Z,10.45
2023-09-25T07:01:30.179Z,9.15
2023-09-25T07:05:31.818Z,8.73
2023-09-25T07:09:33.659Z,8.40
2023-09-25T07:13:35.159Z,9.73
2023-09-25T07:17:36.961Z,7.97
2023-09-25T07:21:38.563Z,8.52
2023-09-25T07:25:40.052Z,7.57
2023-09-25T07:29:46.053Z,7.15
2023-09-25T07:33:47.714Z,6.82
2023-09-25T07:37:50.032Z,6.65
2023-09-25T07:41:51.486Z,6.38
2023-09-25T07:45:53.639Z,6.38
2023-09-25T07:49:55.297Z,6.60
2023-09-25T07:53:59.700Z,6.95
2023-09-25T07:58:04.964Z,5.82
2023-09-25T08:02:07.657Z,5.97
2023-09-25T08:06:12.835Z,5.88
2023-09-25T08:10:14.971Z,5.55
2023-09-25T08:14:16.545Z,5.60
2023-09-25T08:18:18.338Z,5.78
2023-09-25T08:22:20.020Z,5.40
2023-09-25T08:26:21.469Z,5.35
2023-09-25T08:30:24.264Z,4.82
2023-09-25T08:34:25.986Z,4.60
2023-09-25T08:38:27.579Z,4.55
2023-09-25T08:42:29.453Z,4.82
2023-09-25T08:46:31.387Z,4.63
2023-09-25T08:50:34.864Z,4.93
2023-09-25T08:54:37.153Z,4.85
2023-09-25T08:58:43.067Z,4.68
2023-09-25T09:02:45.253Z,4.60
2023-09-25T09:06:46.851Z,4.57
2023-09-25T09:10:48.373Z,4.70
2023-09-25T09:14:49.932Z,4.68
2023-09-25T09:19:07.773Z,3.50
2023-09-25T09:23:10.228Z,3.55
2023-09-25T09:27:13.204Z,4.03
2023-09-25T09:31:15.748Z,6.22
2023-09-25T09:35:24.395Z,3.97
2023-09-25T09:39:38.461Z,3.92
2023-09-25T09:43:42.409Z,3.75
2023-09-25T09:47:48.486Z,3.72
2023-09-25T09:51:51.388Z,3.38
2023-09-25T09:55:54.142Z,3.45
2023-09-25T09:59:57.587Z,3.28
2023-09-25T10:03:59.450Z,4.95
2023-09-25T10:08:11.141Z,3.45
2023-09-25T10:12:12.821Z,3.20
2023-09-25T10:16:16.813Z,2.50
2023-09-25T10:20:39.487Z,2.72
2023-09-25T10:24:46.882Z,2.45
2023-09-25T10:29:10.209Z,2.67
2023-09-25T10:33:12.026Z,2.40
2023-09-25T10:37:14.269Z,2.35
2023-09-25T10:41:16.564Z,2.97
2023-09-25T10:45:23.638Z,2.00
2023-09-25T10:49:25.270Z,2.38
2023-09-25T10:53:28.145Z,2.00
2023-09-25T10:57:30.374Z,2.08
2023-09-25T11:01:32.821Z,6.40
2023-09-25T11:05:39.722Z,2.60
2023-09-25T11:09:41.228Z,2.10
2023-09-25T11:13:43.190Z,2.47
2023-09-25T11:17:46.920Z,2.17
2023-09-25T11:21:51.447Z,2.15
2023-09-25T11:25:54.357Z,1.92
2023-09-25T11:29:56.711Z,2.30
2023-09-25T11:33:58.379Z,1.80
2023-09-25T11:38:02.001Z,1.83
2023-09-25T11:42:04.359Z,1.75
2023-09-25T11:46:06.001Z,1.73
2023-09-25T11:50:08.193Z,1.90
2023-09-25T11:54:10.112Z,2.20
2023-09-25T11:58:11.891Z,2.00
2023-09-25T12:02:13.678Z,3.20
2023-09-25T12:06:15.275Z,4.45
2023-09-25T12:10:20.818Z,2.42
2023-09-25T12:14:22.620Z,2.38
2023-09-25T12:18:24.918Z,2.40
2023-09-25T12:22:27.311Z,2.58
2023-09-25T12:26:29.090Z,2.10
2023-09-25T12:30:30.952Z,2.20
2023-09-25T12:34:32.534Z,5.22
2023-09-25T12:38:34.017Z,2.70
2023-09-25T12:42:51.082Z,2.53
2023-09-25T12:46:53.551Z,2.10
2023-09-25T12:50:55.093Z,2.10
2023-09-25T12:54:57.131Z,2.30
2023-09-25T12:58:59.038Z,2.75
2023-09-25T13:03:00.661Z,2.30
2023-09-25T13:07:02.364Z,2.08
2023-09-25T13:11:03.877Z,1.98
2023-09-25T13:15:07.579Z,2.03
2023-09-25T13:19:09.325Z,2.22
2023-09-25T13:23:11.019Z,1.95
2023-09-25T13:27:12.691Z,1.83
2023-09-25T13:31:14.608Z,1.50
2023-09-25T13:35:17.905Z,1.50
2023-09-25T13:39:19.497Z,1.42
2023-09-25T13:43:21.486Z,1.50
2023-09-25T13:47:25.828Z,1.70
2023-09-25T13:51:27.388Z,1.25
2023-09-25T13:55:28.924Z,3.58
2023-09-25T13:59:30.808Z,3.70
2023-09-25T14:03:32.566Z,2.20
2023-09-25T14:07:34.514Z,1.70
2023-09-25T14:11:37.281Z,1.50
2023-09-25T14:15:39.682Z,1.63
2023-09-25T14:19:41.221Z,1.25
2023-09-25T14:23:42.756Z,1.52
2023-09-25T14:27:44.913Z,1.58
2023-09-25T14:31:46.713Z,1.52
2023-09-25T14:35:48.400Z,1.33
2023-09-25T14:39:50.097Z,1.70
2023-09-25T14:43:52.153Z,1.30
2023-09-25T14:47:54.051Z,1.20
2023-09-25T14:51:57.331Z,1.80
2023-09-25T14:55:58.929Z,1.77
2023-09-25T15:00:00.736Z,1.55
2023-09-25T15:04:02.408Z,1.77
2023-09-25T15:08:04.375Z,1.90
2023-09-25T15:12:06.123Z,2.00
2023-09-25T15:16:09.084Z,2.00
2023-09-25T15:20:10.823Z,6.80
2023-09-25T15:24:12.565Z,1.85
2023-09-25T15:28:14.091Z,1.85
2023-09-25T15:32:16.186Z,2.10
2023-09-25T15:36:18.205Z,1.98
2023-09-25T15:40:24.445Z,1.90
2023-09-25T15:44:26.383Z,2.13
2023-09-25T15:48:28.228Z,2.28
2023-09-25T15:52:29.719Z,2.28
2023-09-25T15:56:31.348Z,2.58
2023-09-25T16:00:32.904Z,5.28
2023-09-25T16:04:36.290Z,2.83
2023-09-25T16:08:37.977Z,2.00
2023-09-25T16:12:39.562Z,2.50
2023-09-25T16:16:41.070Z,2.15
2023-09-25T16:20:43.576Z,2.42
2023-09-25T16:24:45.672Z,2.08
2023-09-25T16:28:47.181Z,2.03
2023-09-25T16:32:48.857Z,2.40
2023-09-25T16:36:50.410Z,2.15
2023-09-25T16:40:52.252Z,1.70
2023-09-25T16:44:53.891Z,1.80
2023-09-25T16:48:55.518Z,2.30
2023-09-25T16:52:57.056Z,5.07
2023-09-25T16:56:58.565Z,2.53
2023-09-25T17:01:00.158Z,14.38
2023-09-25T17:05:01.656Z,2.70
2023-09-25T17:09:03.533Z,2.75
2023-09-25T17:13:09.925Z,2.90
2023-09-25T17:17:11.489Z,3.15
2023-09-25T17:21:13.571Z,4.10
2023-09-25T17:25:15.432Z,2.90
2023-09-25T17:29:17.515Z,3.83
2023-09-25T17:33:19.022Z,3.83
2023-09-25T17:37:20.641Z,3.45
2023-09-25T17:41:22.162Z,3.30
2023-09-25T17:45:23.720Z,5.10
2023-09-25T17:49:25.176Z,3.20
2023-09-25T17:53:26.751Z,4.93
2023-09-25T17:57:28.270Z,3.55
2023-09-25T18:01:29.742Z,4.95
2023-09-25T18:05:31.286Z,4.82
2023-09-25T18:09:32.812Z,4.78
2023-09-25T18:13:34.328Z,5.63
2023-09-25T18:17:35.935Z,3.97
2023-09-25T18:21:37.556Z,4.93
2023-09-25T18:25:41.914Z,3.47
2023-09-25T18:29:43.638Z,3.58
2023-09-25T18:33:45.200Z,4.20
2023-09-25T18:37:46.732Z,3.97
2023-09-25T18:41:48.273Z,4.45
2023-09-25T18:45:49.965Z,4.65
2023-09-25T18:49:51.469Z,6.57
2023-09-25T18:53:53.071Z,5.85
2023-09-25T18:57:54.604Z,4.57
2023-09-25T19:01:56.144Z,5.47
2023-09-25T19:05:57.814Z,4.55
2023-09-25T19:10:04.196Z,5.95
2023-09-25T19:14:05.781Z,6.40
2023-09-25T19:18:07.417Z,6.03
2023-09-25T19:22:09.802Z,5.07
2023-09-25T19:26:11.592Z,5.25
2023-09-25T19:30:14.182Z,5.03
2023-09-25T19:34:15.736Z,5.22
2023-09-25T19:38:17.334Z,5.88
2023-09-25T19:42:18.799Z,6.38
2023-09-25T19:46:20.877Z,6.28
2023-09-25T19:50:22.409Z,6.82
2023-09-25T19:54:23.918Z,5.50
2023-09-25T19:58:25.476Z,7.82
2023-09-25T20:02:26.993Z,5.78
2023-09-25T20:06:28.687Z,5.60
2023-09-25T20:10:30.389Z,6.03
2023-09-25T20:14:31.890Z,5.38
2023-09-25T20:18:33.409Z,6.20
2023-09-25T20:22:34.947Z,8.43
2023-09-25T20:26:36.377Z,6.22
2023-09-25T20:30:37.954Z,5.93
2023-09-25T20:34:39.682Z,5.80
2023-09-25T20:38:41.182Z,5.72
2023-09-25T20:42:42.740Z,5.03
2023-09-25T20:46:49.485Z,5.70
2023-09-25T20:50:51.271Z,5.20
2023-09-25T20:54:52.772Z,5.32
2023-09-25T20:58:54.277Z,5.72
2023-09-25T21:02:56.539Z,5.50
2023-09-25T21:06:58.093Z,6.05
2023-09-25T21:11:00.019Z,5.70
2023-09-25T21:15:01.783Z,6.30
2023-09-25T21:19:03.441Z,6.05
2023-09-25T21:23:05.076Z,6.18
2023-09-25T21:27:06.633Z,6.47
2023-09-25T21:31:08.875Z,6.47
2023-09-25T21:35:10.488Z,6.72
2023-09-25T21:39:12.005Z,6.35
2023-09-25T21:43:13.639Z,6.68
2023-09-25T21:47:15.622Z,7.40
2023-09-25T21:51:17.137Z,6.60
2023-09-25T21:55:18.747Z,6.78
2023-09-25T21:59:20.299Z,7.00
2023-09-25T22:03:21.870Z,7.13
2023-09-25T22:07:23.480Z,6.68
2023-09-25T22:11:25.678Z,6.90
2023-09-25T22:15:29.835Z,7.57
2023-09-25T22:19:31.315Z,7.13
2023-09-25T22:23:35.210Z,7.60
2023-09-25T22:27:36.889Z,7.05
2023-09-25T22:31:40.726Z,7.50
2023-09-25T22:35:42.712Z,6.88
2023-09-25T22:39:44.260Z,6.90
2023-09-25T22:43:47.400Z,8.38
2023-09-25T22:47:48.889Z,7.88
2023-09-25T22:51:50.461Z,7.28
2023-09-25T22:55:51.987Z,7.85
2023-09-25T22:59:56.673Z,7.68
2023-09-25T23:03:58.780Z,6.90
2023-09-25T23:08:00.361Z,7.85
2023-09-25T23:12:02.044Z,7.50
2023-09-25T23:16:03.602Z,8.43
2023-09-25T23:20:24.012Z,7.22
2023-09-25T23:24:25.512Z,7.47
2023-09-25T23:28:27.003Z,7.63
2023-09-25T23:32:28.475Z,8.77
2023-09-25T23:36:29.967Z,8.00
2023-09-25T23:40:31.851Z,8.38
2023-09-25T23:44:33.508Z,7.95
2023-09-25T23:48:37.409Z,8.27
2023-09-25T23:52:40.666Z,8.05
2023-09-25T23:56:42.182Z,8.20
